createdAt,value
2023-02-17T00:00:20.178Z,97069.13
2023-02-17T00:02:47.287Z,97067.97
2023-02-17T00:05:14.541Z,97073.97
2023-02-17T00:07:41.621Z,97069.94
2023-02-17T00:10:09.134Z,97074.31
2023-02-17T00:12:36.916Z,97083.47
2023-02-17T00:15:04.253Z,97080.41
2023-02-17T00:17:31.192Z,97076.19
2023-02-17T00:19:58.330Z,97077.38
2023-02-17T00:22:25.320Z,97071.56
2023-02-17T00:24:52.400Z,97076.13
2023-02-17T00:27:20.118Z,97078.72
2023-02-17T00:29:47.159Z,97077.72
2023-02-17T00:32:14.211Z,97079.50
2023-02-17T00:34:42.677Z,97078.88
2023-02-17T00:37:09.582Z,97081.69
2023-02-17T00:39:36.606Z,97076.50
2023-02-17T00:42:03.822Z,97092.84
2023-02-17T00:44:30.775Z,97087.03
2023-02-17T00:46:57.768Z,97078.06
2023-02-17T00:49:26.750Z,97088.09
2023-02-17T00:51:54.484Z,97085.34
2023-02-17T00:54:21.591Z,97083.00
2023-02-17T00:56:48.560Z,97081.22
2023-02-17T00:59:15.607Z,97074.06
2023-02-17T01:01:42.824Z,97074.22
2023-02-17T01:04:10.354Z,97076.34
2023-02-17T01:06:38.956Z,97074.75
2023-02-17T01:09:09.266Z,97082.81
2023-02-17T01:11:36.821Z,97076.00
2023-02-17T01:14:06.472Z,97078.50
2023-02-17T01:16:39.174Z,97069.13
2023-02-17T01:19:09.227Z,97071.63
2023-02-17T01:21:36.488Z,97064.84
2023-02-17T01:24:06.013Z,97074.56
2023-02-17T01:26:35.756Z,97076.19
2023-02-17T01:29:05.111Z,97071.63
2023-02-17T01:31:32.870Z,97061.25
2023-02-17T01:34:02.487Z,97057.84
2023-02-17T01:36:29.989Z,97051.50
2023-02-17T01:38:56.927Z,97050.31
2023-02-17T01:41:27.250Z,97044.16
2023-02-17T01:44:12.459Z,97042.81
2023-02-17T01:46:41.917Z,97043.06
2023-02-17T01:49:24.489Z,97045.56
2023-02-17T01:52:02.959Z,97043.38
2023-02-17T01:54:54.523Z,97036.28
2023-02-17T01:57:25.169Z,97028.88
2023-02-17T01:59:52.866Z,97029.06
2023-02-17T02:02:20.859Z,97025.41
2023-02-17T02:04:51.541Z,97041.97
2023-02-17T02:07:23.080Z,97037.50
2023-02-17T02:09:54.231Z,97034.28
2023-02-17T02:12:22.859Z,97040.09
2023-02-17T02:14:51.086Z,97037.69
2023-02-17T02:17:37.681Z,97040.88
2023-02-17T02:20:13.889Z,97034.53
2023-02-17T02:22:43.864Z,97018.16
2023-02-17T02:25:31.982Z,97019.41
2023-02-17T02:28:14.082Z,97018.22
2023-02-17T02:31:01.256Z,97018.28
2023-02-17T02:33:37.290Z,97017.94
2023-02-17T02:36:21.204Z,97018.81
2023-02-17T02:39:00.056Z,97016.88
2023-02-17T02:41:33.576Z,97022.31
2023-02-17T02:44:03.052Z,97022.31
2023-02-17T02:46:29.973Z,97014.34
2023-02-17T02:48:57.405Z,97008.53
2023-02-17T02:51:39.068Z,97009.50
2023-02-17T02:54:54.053Z,97008.91
2023-02-17T02:57:36.975Z,97007.38
2023-02-17T03:00:20.755Z,97012.16
2023-02-17T03:03:28.983Z,97008.66
2023-02-17T03:06:37.546Z,97012.91
2023-02-17T03:09:13.054Z,97009.97
2023-02-17T03:11:42.334Z,97005.41
2023-02-17T03:14:13.150Z,97010.19
2023-02-17T03:16:42.181Z,97004.44
2023-02-17T03:19:10.050Z,97003.44
2023-02-17T03:22:03.060Z,96997.09
2023-02-17T03:24:32.374Z,97001.34
2023-02-17T03:26:59.546Z,96995.38
2023-02-17T03:29:26.466Z,96998.84
2023-02-17T03:31:53.549Z,97000.09
2023-02-17T03:34:20.726Z,97002.91
2023-02-17T03:36:47.703Z,97001.94
2023-02-17T03:39:14.899Z,97004.34
2023-02-17T03:41:41.851Z,97009.25
2023-02-17T03:44:08.832Z,97006.00
2023-02-17T03:46:36.322Z,97009.81
2023-02-17T03:49:03.369Z,97023.16
2023-02-17T03:51:30.299Z,97022.94
2023-02-17T03:53:57.244Z,97018.09
2023-02-17T03:56:24.237Z,97023.88
2023-02-17T03:58:51.232Z,97025.47
2023-02-17T04:01:18.439Z,97025.84
2023-02-17T04:03:45.452Z,97017.28
2023-02-17T04:06:13.014Z,97019.31
2023-02-17T04:08:40.672Z,97013.25
2023-02-17T04:11:09.504Z,97017.13
2023-02-17T04:13:37.500Z,97015.38
2023-02-17T04:16:05.896Z,97017.59
2023-02-17T04:18:33.106Z,97016.03
2023-02-17T04:21:00.107Z,97018.28
2023-02-17T04:23:27.661Z,97013.09
2023-02-17T04:25:54.857Z,97008.47
2023-02-17T04:28:22.982Z,97003.06
2023-02-17T04:30:51.095Z,97009.47
2023-02-17T04:33:18.981Z,97007.50
2023-02-17T04:35:47.189Z,97004.53
2023-02-17T04:38:14.345Z,97009.47
2023-02-17T04:40:41.731Z,97004.94
2023-02-17T04:43:08.799Z,97006.38
2023-02-17T04:45:37.100Z,97010.56
2023-02-17T04:48:03.962Z,97017.78
2023-02-17T04:50:31.068Z,97006.19
2023-02-17T04:52:58.215Z,97004.25
2023-02-17T04:55:25.249Z,96996.66
2023-02-17T04:57:52.362Z,96995.25
2023-02-17T05:00:19.780Z,96992.03
2023-02-17T05:02:46.921Z,96992.47
2023-02-17T05:05:18.980Z,96984.66
2023-02-17T05:07:47.691Z,96985.28
2023-02-17T05:10:16.599Z,96982.28
2023-02-17T05:12:43.629Z,96981.09
2023-02-17T05:15:12.120Z,96974.31
2023-02-17T05:17:39.213Z,96971.97
2023-02-17T05:20:07.815Z,96974.78
2023-02-17T05:22:34.972Z,96970.59
2023-02-17T05:25:02.342Z,96976.31
2023-02-17T05:27:29.534Z,96978.88
2023-02-17T05:29:56.757Z,96980.44
2023-02-17T05:32:24.451Z,96980.59
2023-02-17T05:34:51.774Z,96984.75
2023-02-17T05:37:19.018Z,96977.16
2023-02-17T05:39:46.420Z,96979.34
2023-02-17T05:42:13.733Z,96981.91
2023-02-17T05:44:40.984Z,96985.22
2023-02-17T05:47:08.337Z,96986.16
2023-02-17T05:49:35.436Z,96984.13
2023-02-17T05:52:02.983Z,96993.69
2023-02-17T05:54:30.217Z,96992.50
2023-02-17T05:56:57.348Z,96987.06
2023-02-17T05:59:24.872Z,96988.59
2023-02-17T06:01:52.183Z,96988.38
2023-02-17T06:04:19.465Z,96991.53
2023-02-17T06:06:46.802Z,96989.13
2023-02-17T06:09:13.938Z,96986.88
2023-02-17T06:11:41.134Z,96990.84
2023-02-17T06:14:08.265Z,96993.19
2023-02-17T06:16:35.502Z,96993.41
2023-02-17T06:19:02.939Z,96990.41
2023-02-17T06:21:30.101Z,96984.00
2023-02-17T06:23:57.219Z,96980.41
2023-02-17T06:26:24.568Z,96970.03
2023-02-17T06:28:51.701Z,96974.03
2023-02-17T06:31:18.907Z,96980.66
2023-02-17T06:33:46.119Z,96983.25
2023-02-17T06:36:13.335Z,96980.88
2023-02-17T06:38:40.498Z,96983.06
2023-02-17T06:41:07.854Z,96970.94
2023-02-17T06:43:35.054Z,96972.56
2023-02-17T06:46:02.208Z,96980.81
2023-02-17T06:48:29.573Z,96968.28
2023-02-17T06:50:56.612Z,96980.91
2023-02-17T06:53:23.813Z,96979.53
2023-02-17T06:55:50.945Z,96976.41
2023-02-17T06:58:18.132Z,96988.03
2023-02-17T07:00:45.172Z,96989.44
2023-02-17T07:03:12.239Z,96983.28
2023-02-17T07:05:40.534Z,96984.81
2023-02-17T07:08:07.629Z,96982.28
2023-02-17T07:10:35.096Z,96985.53
2023-02-17T07:13:02.258Z,96988.34
2023-02-17T07:15:29.496Z,96984.06
2023-02-17T07:17:56.781Z,96988.69
2023-02-17T07:20:23.977Z,96979.72
2023-02-17T07:22:51.137Z,96985.97
2023-02-17T07:25:18.298Z,96987.22
2023-02-17T07:27:45.469Z,96979.25
2023-02-17T07:30:13.250Z,96983.53
2023-02-17T07:32:40.581Z,96974.13
2023-02-17T07:35:08.144Z,96980.75
2023-02-17T07:37:35.565Z,96980.38
2023-02-17T07:40:02.987Z,96970.75
2023-02-17T07:42:30.255Z,96975.53
2023-02-17T07:44:57.454Z,96973.34
2023-02-17T07:47:24.696Z,96973.50
2023-02-17T07:49:51.863Z,96982.34
2023-02-17T07:52:19.734Z,96984.75
2023-02-17T07:54:46.893Z,96978.28
2023-02-17T07:57:14.134Z,96973.44
2023-02-17T07:59:41.453Z,96967.81
2023-02-17T08:02:11.937Z,96967.16
2023-02-17T08:04:39.372Z,96966.53
2023-02-17T08:07:06.451Z,96973.97
2023-02-17T08:09:52.256Z,96987.19
2023-02-17T08:12:39.559Z,96983.78
2023-02-17T08:15:09.747Z,96972.06
2023-02-17T08:17:37.145Z,96977.88
2023-02-17T08:20:08.776Z,96975.22
2023-02-17T08:22:37.577Z,96971.59
2023-02-17T08:25:06.537Z,96973.97
2023-02-17T08:27:33.899Z,96976.34
2023-02-17T08:30:01.251Z,96974.28
2023-02-17T08:32:28.664Z,96978.06
2023-02-17T08:34:57.134Z,96973.59
2023-02-17T08:37:24.378Z,96976.94
2023-02-17T08:39:51.640Z,96972.06
2023-02-17T08:42:20.080Z,96966.56
2023-02-17T08:44:47.602Z,96967.31
2023-02-17T08:47:15.575Z,96971.28
2023-02-17T08:49:42.818Z,96970.94
2023-02-17T08:52:10.189Z,96966.38
2023-02-17T08:54:37.895Z,96969.00
2023-02-17T08:57:05.287Z,96964.34
2023-02-17T08:59:32.686Z,96961.31
2023-02-17T09:02:00.163Z,96951.16
2023-02-17T09:04:27.993Z,96953.53
2023-02-17T09:06:57.003Z,96955.66
2023-02-17T09:09:27.216Z,96948.28
2023-02-17T09:11:59.487Z,96939.41
2023-02-17T09:14:27.320Z,96928.56
2023-02-17T09:16:55.551Z,96931.34
2023-02-17T09:19:23.051Z,96926.16
2023-02-17T09:21:50.429Z,96929.28
2023-02-17T09:24:18.156Z,96925.69
2023-02-17T09:26:45.856Z,96926.03
2023-02-17T09:29:13.238Z,96928.28
2023-02-17T09:31:40.952Z,96930.44
2023-02-17T09:34:08.336Z,96931.81
2023-02-17T09:36:40.141Z,96935.81
2023-02-17T09:39:07.776Z,96936.91
2023-02-17T09:41:41.774Z,96938.94
2023-02-17T09:44:19.944Z,96926.06
2023-02-17T09:47:02.258Z,96935.00
2023-02-17T09:49:45.065Z,96938.31
2023-02-17T09:52:21.790Z,96930.84
2023-02-17T09:55:17.254Z,96933.63
2023-02-17T09:57:54.593Z,96924.00
2023-02-17T10:00:35.720Z,96925.66
2023-02-17T10:03:07.305Z,96926.56
2023-02-17T10:05:40.954Z,96928.50
2023-02-17T10:08:19.674Z,96931.19
2023-02-17T10:10:54.566Z,96923.59
2023-02-17T10:13:24.151Z,96929.13
2023-02-17T10:15:58.988Z,96928.31
2023-02-17T10:18:37.612Z,96919.13
2023-02-17T10:21:13.058Z,96921.81
2023-02-17T10:23:40.693Z,96913.84
2023-02-17T10:26:22.769Z,96911.59
2023-02-17T10:28:57.741Z,96903.53
2023-02-17T10:31:48.204Z,96904.13
2023-02-17T10:34:38.696Z,96906.53
2023-02-17T10:37:17.896Z,96894.13
2023-02-17T10:39:53.636Z,96896.75
2023-02-17T10:42:36.893Z,96890.44
2023-02-17T10:45:12.094Z,96880.59
2023-02-17T10:47:40.456Z,96890.13
2023-02-17T10:50:22.012Z,96877.94
2023-02-17T10:52:50.213Z,96879.28
2023-02-17T10:55:24.063Z,96880.88
2023-02-17T10:57:59.017Z,96868.84
2023-02-17T11:00:27.377Z,96867.94
2023-02-17T11:02:54.617Z,96858.47
2023-02-17T11:05:31.017Z,96862.25
2023-02-17T11:08:02.861Z,96865.44
2023-02-17T11:10:36.467Z,96857.47
2023-02-17T11:13:18.615Z,96853.53
2023-02-17T11:15:48.254Z,96849.78
2023-02-17T11:18:29.385Z,96844.69
2023-02-17T11:21:06.215Z,96845.19
2023-02-17T11:23:34.695Z,96839.94
2023-02-17T11:26:03.922Z,96838.38
2023-02-17T11:28:31.173Z,96838.44
2023-02-17T11:31:02.804Z,96838.41
2023-02-17T11:33:34.256Z,96828.91
2023-02-17T11:36:02.063Z,96836.31
2023-02-17T11:38:45.624Z,96827.84
2023-02-17T11:41:12.978Z,96825.69
2023-02-17T11:43:40.464Z,96832.06
2023-02-17T11:46:25.223Z,96831.78
2023-02-17T11:49:21.748Z,96822.50
2023-02-17T11:52:13.659Z,96816.16
2023-02-17T11:54:55.747Z,96812.47
2023-02-17T11:57:30.674Z,96813.13
2023-02-17T12:00:19.477Z,96810.81
2023-02-17T12:13:47.896Z,96802.13
2023-02-17T12:16:33.926Z,96801.56
2023-02-17T12:19:23.939Z,96799.69
2023-02-17T12:22:17.934Z,96790.22
2023-02-17T12:25:03.539Z,96783.59
2023-02-17T12:28:07.253Z,96785.75
2023-02-17T12:30:34.586Z,96778.38
2023-02-17T12:33:27.017Z,96782.09
2023-02-17T12:36:08.215Z,96783.66
2023-02-17T12:38:43.963Z,96782.34
2023-02-17T12:41:19.143Z,96789.78
2023-02-17T12:43:51.255Z,96785.28
2023-02-17T12:46:33.498Z,96784.25
2023-02-17T12:49:06.608Z,96778.38
2023-02-17T12:51:51.778Z,96776.28
2023-02-17T12:54:21.536Z,96778.38
2023-02-17T12:57:04.775Z,96772.84
2023-02-17T12:59:59.015Z,96761.72
2023-02-17T13:02:26.849Z,96761.22
2023-02-17T13:04:57.891Z,96761.22
2023-02-17T13:07:47.826Z,96763.03
2023-02-17T13:10:36.498Z,96766.69
2023-02-17T13:13:24.498Z,96770.38
2023-02-17T13:16:01.275Z,96761.38
2023-02-17T13:18:35.181Z,96769.28
2023-02-17T13:21:25.230Z,96759.00
2023-02-17T13:24:05.146Z,96764.78
2023-02-17T13:26:35.226Z,96755.00
2023-02-17T13:29:19.111Z,96753.94
2023-02-17T13:31:55.758Z,96744.16
2023-02-17T13:34:29.950Z,96745.41
2023-02-17T13:36:58.144Z,96749.63
2023-02-17T13:39:28.900Z,96747.81
2023-02-17T13:41:59.231Z,96754.69
2023-02-17T13:44:34.055Z,96757.31
2023-02-17T13:47:06.668Z,96745.41
2023-02-17T13:49:35.453Z,96748.59
2023-02-17T13:52:23.544Z,96744.13
2023-02-17T13:54:56.100Z,96743.88
2023-02-17T13:57:35.335Z,96739.88
2023-02-17T14:00:29.060Z,96741.22
2023-02-17T14:02:58.987Z,96738.28
2023-02-17T14:05:43.941Z,96735.66
2023-02-17T14:08:34.534Z,96734.06
2023-02-17T14:11:10.824Z,96735.88
2023-02-17T14:13:40.524Z,96729.81
2023-02-17T14:16:08.875Z,96723.72
2023-02-17T14:18:39.373Z,96727.91
2023-02-17T14:21:10.578Z,96718.09
2023-02-17T14:23:46.212Z,96721.84
2023-02-17T14:26:27.376Z,96720.50
2023-02-17T14:28:56.900Z,96722.09
2023-02-17T14:31:24.893Z,96719.94
2023-02-17T14:33:53.332Z,96723.38
2023-02-17T14:36:30.601Z,96714.94
2023-02-17T14:38:59.058Z,96714.91
2023-02-17T14:41:27.056Z,96724.38
2023-02-17T14:43:54.254Z,96735.44
2023-02-17T14:46:21.726Z,96726.47
2023-02-17T14:48:50.455Z,96716.94
2023-02-17T14:51:20.944Z,96717.41
2023-02-17T14:53:49.581Z,96720.28
2023-02-17T14:56:30.635Z,96715.78
2023-02-17T14:58:58.180Z,96723.38
2023-02-17T15:01:26.821Z,96712.81
2023-02-17T15:03:54.741Z,96708.03
2023-02-17T15:06:32.551Z,96706.97
2023-02-17T15:09:01.460Z,96710.06
2023-02-17T15:11:34.701Z,96702.13
2023-02-17T15:14:03.181Z,96702.59
2023-02-17T15:16:31.102Z,96702.31
2023-02-17T15:18:58.899Z,96701.47
2023-02-17T15:21:27.501Z,96698.59
2023-02-17T15:23:57.388Z,96697.22
2023-02-17T15:26:24.986Z,96699.22
2023-02-17T15:28:52.417Z,96698.19
2023-02-17T15:31:21.603Z,96693.59
2023-02-17T15:33:57.336Z,96689.91
2023-02-17T15:36:25.739Z,96696.69
2023-02-17T15:38:53.101Z,96689.56
2023-02-17T15:41:24.059Z,96689.75
2023-02-17T15:43:52.736Z,96696.03
2023-02-17T15:46:23.309Z,96697.75
2023-02-17T15:48:50.893Z,96699.22
2023-02-17T15:51:20.254Z,96697.81
2023-02-17T15:53:48.254Z,96702.75
2023-02-17T15:56:23.744Z,96688.97
2023-02-17T15:58:51.453Z,96694.41
2023-02-17T16:01:30.894Z,96690.13
2023-02-17T16:03:58.935Z,96691.91
2023-02-17T16:06:27.181Z,96679.16
2023-02-17T16:08:54.457Z,96694.66
2023-02-17T16:11:23.425Z,96690.34
2023-02-17T16:13:52.261Z,96692.69
2023-02-17T16:16:24.590Z,96694.75
2023-02-17T16:18:52.580Z,96695.69
2023-02-17T16:21:19.931Z,96701.41
2023-02-17T16:23:47.341Z,96705.53
2023-02-17T16:26:20.192Z,96693.09
2023-02-17T16:28:47.581Z,96698.50
2023-02-17T16:31:14.857Z,96699.97
2023-02-17T16:33:42.098Z,96702.75
2023-02-17T16:36:20.703Z,96707.34
2023-02-17T16:38:51.381Z,96696.53
2023-02-17T16:41:20.619Z,96705.94
2023-02-17T16:43:48.107Z,96698.53
2023-02-17T16:46:36.699Z,96696.38
2023-02-17T16:49:15.898Z,96695.03
2023-02-17T16:51:43.223Z,96698.28
2023-02-17T16:54:12.102Z,96702.09
2023-02-17T16:56:48.546Z,96704.66
2023-02-17T16:59:19.016Z,96702.72
2023-02-17T17:01:47.072Z,96704.22
2023-02-17T17:04:15.820Z,96707.53
2023-02-17T17:06:45.819Z,96703.59
2023-02-17T17:09:21.917Z,96705.63
2023-02-17T17:11:49.820Z,96707.16
2023-02-17T17:14:17.379Z,96703.41
2023-02-17T17:16:51.001Z,96701.25
2023-02-17T17:19:18.698Z,96707.75
2023-02-17T17:21:45.893Z,96701.94
2023-02-17T17:24:13.096Z,96699.00
2023-02-17T17:26:45.381Z,96692.59
2023-02-17T17:29:14.735Z,96708.81
2023-02-17T17:31:42.485Z,96704.25
2023-02-17T17:34:09.774Z,96698.13
2023-02-17T17:36:43.467Z,96699.84
2023-02-17T17:39:22.778Z,96702.94
2023-02-17T17:41:51.504Z,96702.63
2023-02-17T17:44:19.297Z,96709.34
2023-02-17T17:46:46.860Z,96693.81
2023-02-17T17:49:15.380Z,96695.56
2023-02-17T17:51:42.575Z,96695.78
2023-02-17T17:54:10.056Z,96696.50
2023-02-17T17:56:42.740Z,96701.63
2023-02-17T17:59:11.307Z,96702.88
2023-02-17T18:01:38.650Z,96712.47
2023-02-17T18:04:08.199Z,96711.59
2023-02-17T18:06:44.781Z,96720.69
2023-02-17T18:09:30.779Z,96715.34
2023-02-17T18:12:02.622Z,96711.34
2023-02-17T18:14:30.986Z,96710.78
2023-02-17T18:16:58.349Z,96713.06
2023-02-17T18:19:25.986Z,96702.25
2023-02-17T18:21:53.464Z,96711.69
2023-02-17T18:24:20.689Z,96719.69
2023-02-17T18:26:48.154Z,96719.34
2023-02-17T18:29:15.420Z,96728.00
2023-02-17T18:31:42.675Z,96725.47
2023-02-17T18:34:09.975Z,96733.03
2023-02-17T18:36:38.032Z,96725.28
2023-02-17T18:39:05.934Z,96728.00
2023-02-17T18:41:34.970Z,96723.78
2023-02-17T18:44:05.338Z,96726.84
2023-02-17T18:46:36.409Z,96713.41
2023-02-17T18:49:03.772Z,96718.06
2023-02-17T18:51:31.215Z,96710.22
2023-02-17T18:54:00.253Z,96711.47
2023-02-17T18:56:30.104Z,96706.22
2023-02-17T18:58:58.091Z,96706.22
2023-02-17T19:01:35.369Z,96713.28
2023-02-17T19:04:02.982Z,96704.63
2023-02-17T19:06:34.657Z,96699.63
2023-02-17T19:09:04.483Z,96695.75
2023-02-17T19:11:33.894Z,96695.09
2023-02-17T19:14:02.214Z,96689.84
2023-02-17T19:16:31.693Z,96693.81
2023-02-17T19:19:00.876Z,96687.78
2023-02-17T19:21:28.132Z,96682.88
2023-02-17T19:23:55.462Z,96682.44
2023-02-17T19:26:23.254Z,96679.34
2023-02-17T19:28:50.532Z,96672.50
2023-02-17T19:31:20.988Z,96672.53
2023-02-17T19:33:48.397Z,96673.09
2023-02-17T19:36:20.289Z,96683.13
2023-02-17T19:38:48.653Z,96667.63
2023-02-17T19:41:16.657Z,96676.28
2023-02-17T19:43:44.212Z,96678.13
2023-02-17T19:46:16.199Z,96673.78
2023-02-17T19:48:43.502Z,96681.19
2023-02-17T19:51:12.655Z,96679.13
2023-02-17T19:53:41.022Z,96675.28
2023-02-17T19:56:19.823Z,96681.75
2023-02-17T19:58:47.784Z,96669.56
2023-02-17T20:01:18.147Z,96668.19
2023-02-17T20:03:45.820Z,96666.00
2023-02-17T20:06:18.945Z,96672.06
2023-02-17T20:08:46.824Z,96665.81
2023-02-17T20:11:14.943Z,96666.38
2023-02-17T20:13:45.979Z,96667.94
2023-02-17T20:16:15.840Z,96664.19
2023-02-17T20:18:45.945Z,96671.16
2023-02-17T20:21:19.414Z,96661.00
2023-02-17T20:23:46.882Z,96659.28
2023-02-17T20:26:23.920Z,96662.03
2023-02-17T20:28:52.108Z,96663.97
2023-02-17T20:31:19.307Z,96669.09
2023-02-17T20:33:47.696Z,96659.75
2023-02-17T20:36:15.454Z,96650.03
2023-02-17T20:38:42.774Z,96660.97
2023-02-17T20:41:14.336Z,96650.63
2023-02-17T20:43:41.814Z,96648.66
2023-02-17T20:46:23.949Z,96645.72
2023-02-17T20:48:51.777Z,96642.97
2023-02-17T20:51:20.028Z,96640.34
2023-02-17T20:53:47.300Z,96639.56
2023-02-17T20:56:18.057Z,96640.56
2023-02-17T20:58:46.183Z,96644.00
2023-02-17T21:01:13.630Z,96617.81
2023-02-17T21:03:40.954Z,96627.28
2023-02-17T21:06:28.221Z,96622.03
2023-02-17T21:09:01.659Z,96617.81
2023-02-17T21:11:29.464Z,96625.44
2023-02-17T21:13:56.742Z,96624.41
2023-02-17T21:16:28.521Z,96617.94
2023-02-17T21:18:55.821Z,96620.66
2023-02-17T21:21:23.103Z,96625.44
2023-02-17T21:23:50.464Z,96623.75
2023-02-17T21:26:17.784Z,96629.44
2023-02-17T21:28:46.256Z,96616.75
2023-02-17T21:31:15.127Z,96625.72
2023-02-17T21:33:43.738Z,96639.72
2023-02-17T21:36:16.906Z,96640.06
2023-02-17T21:38:45.040Z,96631.53
2023-02-17T21:41:15.774Z,96634.03
2023-02-17T21:44:02.140Z,96628.09
2023-02-17T21:46:30.593Z,96629.00
2023-02-17T21:48:59.878Z,96634.91
2023-02-17T21:51:28.018Z,96619.50
2023-02-17T21:53:55.712Z,96622.41
2023-02-17T21:56:23.699Z,96627.38
2023-02-17T21:58:54.188Z,96621.13
2023-02-17T22:01:24.494Z,96620.09
2023-02-17T22:03:52.030Z,96615.66
2023-02-17T22:06:22.264Z,96624.88
2023-02-17T22:08:49.735Z,96622.34
2023-02-17T22:11:20.501Z,96621.34
2023-02-17T22:13:48.002Z,96619.03
2023-02-17T22:16:15.518Z,96627.81
2023-02-17T22:18:43.092Z,96620.63
2023-02-17T22:21:13.340Z,96622.31
2023-02-17T22:23:41.052Z,96621.38
2023-02-17T22:26:16.095Z,96623.28
2023-02-17T22:28:44.055Z,96631.16
2023-02-17T22:31:16.341Z,96627.28
2023-02-17T22:33:44.618Z,96629.19
2023-02-17T22:36:18.094Z,96628.28
2023-02-17T22:38:46.014Z,96630.88
2023-02-17T22:41:16.945Z,96628.66
2023-02-17T22:43:46.378Z,96631.16
2023-02-17T22:46:16.587Z,96632.53
2023-02-17T22:48:45.661Z,96621.06
2023-02-17T22:51:16.814Z,96620.94
2023-02-17T22:53:44.214Z,96617.63
2023-02-17T22:56:11.454Z,96624.56
2023-02-17T22:58:39.053Z,96628.56
2023-02-17T23:01:11.573Z,96628.56
2023-02-17T23:03:39.058Z,96626.97
2023-02-17T23:06:21.022Z,96633.25
2023-02-17T23:08:49.413Z,96633.25
2023-02-17T23:11:40.336Z,96634.84
2023-02-17T23:14:08.413Z,96641.03
2023-02-17T23:16:35.935Z,96655.31
2023-02-17T23:19:07.540Z,96656.13
2023-02-17T23:21:35.216Z,96650.50
2023-02-17T23:24:03.306Z,96650.59
2023-02-17T23:26:30.739Z,96636.53
2023-02-17T23:28:57.954Z,96638.13
2023-02-17T23:31:25.238Z,96646.88
2023-02-17T23:33:52.619Z,96647.31
2023-02-17T23:36:19.818Z,96651.53
2023-02-17T23:38:47.024Z,96641.75
2023-02-17T23:41:14.348Z,96649.38
2023-02-17T23:43:41.902Z,96643.81
2023-02-17T23:46:09.552Z,96646.34
2023-02-17T23:48:37.061Z,96636.44
2023-02-17T23:51:06.069Z,96640.00
2023-02-17T23:53:33.341Z,96639.56
2023-02-17T23:56:09.548Z,96639.19
2023-02-17T23:58:37.188Z,96639.34
